sensor_id;sensor_type;location;lat;lon;timestamp;P1;durP1;ratioP1;P2;durP2;ratioP2
48203;SDS011;33994;50.998;5.864;2023-05-10T00:02:32;15.25;;;9.27;;
48203;SDS011;33994;50.998;5.864;2023-05-10T00:05:35;17.67;;;9.82;;
48203;SDS011;33994;50.998;5.864;2023-05-10T00:08:38;15.45;;;10.15;;
48203;SDS011;33994;50.998;5.864;2023-05-10T00:11:41;15.18;;;10.20;;
48203;SDS011;33994;50.998;5.864;2023-05-10T00:14:46;17.88;;;10.57;;
48203;SDS011;33994;50.998;5.864;2023-05-10T00:17:49;21.02;;;10.13;;
48203;SDS011;33994;50.998;5.864;2023-05-10T00:20:52;18.13;;;10.52;;
48203;SDS011;33994;50.998;5.864;2023-05-10T00:23:55;19.65;;;11.70;;
48203;SDS011;33994;50.998;5.864;2023-05-10T00:26:58;21.17;;;11.20;;
48203;SDS011;33994;50.998;5.864;2023-05-10T00:30:03;20.98;;;13.10;;
48203;SDS011;33994;50.998;5.864;2023-05-10T00:33:07;19.48;;;11.20;;
48203;SDS011;33994;50.998;5.864;2023-05-10T00:36:11;19.50;;;11.35;;
48203;SDS011;33994;50.998;5.864;2023-05-10T00:39:14;20.27;;;11.30;;
48203;SDS011;33994;50.998;5.864;2023-05-10T00:42:17;20.85;;;11.20;;
48203;SDS011;33994;50.998;5.864;2023-05-10T00:45:21;25.35;;;12.13;;
48203;SDS011;33994;50.998;5.864;2023-05-10T00:48:25;25.02;;;13.05;;
48203;SDS011;33994;50.998;5.864;2023-05-10T00:51:28;25.27;;;13.40;;
48203;SDS011;33994;50.998;5.864;2023-05-10T00:54:32;24.27;;;12.93;;
48203;SDS011;33994;50.998;5.864;2023-05-10T00:57:35;23.05;;;13.00;;
48203;SDS011;33994;50.998;5.864;2023-05-10T01:00:39;27.00;;;14.88;;
48203;SDS011;33994;50.998;5.864;2023-05-10T01:03:44;26.88;;;13.85;;
48203;SDS011;33994;50.998;5.864;2023-05-10T01:06:48;27.75;;;14.35;;
48203;SDS011;33994;50.998;5.864;2023-05-10T01:09:51;26.52;;;14.05;;
48203;SDS011;33994;50.998;5.864;2023-05-10T01:12:54;26.77;;;14.25;;
48203;SDS011;33994;50.998;5.864;2023-05-10T01:15:59;30.75;;;15.57;;
48203;SDS011;33994;50.998;5.864;2023-05-10T01:19:02;28.48;;;15.32;;
48203;SDS011;33994;50.998;5.864;2023-05-10T01:22:11;29.17;;;16.30;;
48203;SDS011;33994;50.998;5.864;2023-05-10T01:25:37;31.52;;;16.38;;
48203;SDS011;33994;50.998;5.864;2023-05-10T01:29:11;31.00;;;16.15;;
48203;SDS011;33994;50.998;5.864;2023-05-10T01:32:25;27.77;;;16.20;;
48203;SDS011;33994;50.998;5.864;2023-05-10T01:35:34;28.33;;;16.10;;
48203;SDS011;33994;50.998;5.864;2023-05-10T01:38:44;26.85;;;16.20;;
48203;SDS011;33994;50.998;5.864;2023-05-10T01:41:54;31.25;;;17.00;;
48203;SDS011;33994;50.998;5.864;2023-05-10T01:45:05;30.33;;;14.57;;
48203;SDS011;33994;50.998;5.864;2023-05-10T01:48:15;28.50;;;15.00;;
48203;SDS011;33994;50.998;5.864;2023-05-10T01:51:21;27.55;;;14.95;;
48203;SDS011;33994;50.998;5.864;2023-05-10T01:54:27;25.92;;;15.05;;
48203;SDS011;33994;50.998;5.864;2023-05-10T01:57:32;23.27;;;13.68;;
48203;SDS011;33994;50.998;5.864;2023-05-10T02:00:39;21.40;;;13.25;;
48203;SDS011;33994;50.998;5.864;2023-05-10T02:03:46;18.17;;;12.03;;
48203;SDS011;33994;50.998;5.864;2023-05-10T02:06:52;21.45;;;11.65;;
48203;SDS011;33994;50.998;5.864;2023-05-10T02:09:57;20.88;;;11.25;;
48203;SDS011;33994;50.998;5.864;2023-05-10T02:13:01;20.13;;;13.35;;
48203;SDS011;33994;50.998;5.864;2023-05-10T02:16:05;19.00;;;12.73;;
48203;SDS011;33994;50.998;5.864;2023-05-10T02:19:11;17.42;;;10.55;;
48203;SDS011;33994;50.998;5.864;2023-05-10T02:22:15;18.90;;;10.45;;
48203;SDS011;33994;50.998;5.864;2023-05-10T02:25:20;16.70;;;10.48;;
48203;SDS011;33994;50.998;5.864;2023-05-10T02:28:24;16.27;;;10.52;;
48203;SDS011;33994;50.998;5.864;2023-05-10T02:31:28;17.67;;;10.60;;
48203;SDS011;33994;50.998;5.864;2023-05-10T02:34:34;17.38;;;10.02;;
48203;SDS011;33994;50.998;5.864;2023-05-10T02:37:38;16.38;;;9.95;;
48203;SDS011;33994;50.998;5.864;2023-05-10T02:40:43;15.90;;;9.63;;
48203;SDS011;33994;50.998;5.864;2023-05-10T02:43:49;20.70;;;10.63;;
48203;SDS011;33994;50.998;5.864;2023-05-10T02:46:54;17.92;;;9.80;;
48203;SDS011;33994;50.998;5.864;2023-05-10T02:49:59;19.80;;;9.45;;
48203;SDS011;33994;50.998;5.864;2023-05-10T02:53:04;18.90;;;9.38;;
48203;SDS011;33994;50.998;5.864;2023-05-10T02:56:13;17.83;;;9.30;;
48203;SDS011;33994;50.998;5.864;2023-05-10T02:59:23;20.75;;;9.73;;
48203;SDS011;33994;50.998;5.864;2023-05-10T03:02:26;18.77;;;8.98;;
48203;SDS011;33994;50.998;5.864;2023-05-10T03:05:30;18.42;;;9.15;;
48203;SDS011;33994;50.998;5.864;2023-05-10T03:08:33;18.67;;;9.35;;
48203;SDS011;33994;50.998;5.864;2023-05-10T03:11:39;22.48;;;9.65;;
48203;SDS011;33994;50.998;5.864;2023-05-10T03:14:53;15.18;;;9.70;;
48203;SDS011;33994;50.998;5.864;2023-05-10T03:18:04;16.95;;;9.43;;
48203;SDS011;33994;50.998;5.864;2023-05-10T03:21:13;18.95;;;9.20;;
48203;SDS011;33994;50.998;5.864;2023-05-10T03:24:19;23.75;;;10.55;;
48203;SDS011;33994;50.998;5.864;2023-05-10T03:27:25;19.58;;;10.13;;
48203;SDS011;33994;50.998;5.864;2023-05-10T03:30:29;26.13;;;10.65;;
48203;SDS011;33994;50.998;5.864;2023-05-10T03:33:33;18.08;;;10.60;;
48203;SDS011;33994;50.998;5.864;2023-05-10T03:36:38;19.58;;;10.48;;
48203;SDS011;33994;50.998;5.864;2023-05-10T03:39:41;21.17;;;10.32;;
48203;SDS011;33994;50.998;5.864;2023-05-10T03:42:44;19.13;;;10.80;;
48203;SDS011;33994;50.998;5.864;2023-05-10T03:45:47;22.15;;;11.70;;
48203;SDS011;33994;50.998;5.864;2023-05-10T03:48:50;20.60;;;10.82;;
48203;SDS011;33994;50.998;5.864;2023-05-10T03:51:55;23.60;;;13.23;;
48203;SDS011;33994;50.998;5.864;2023-05-10T03:54:58;22.77;;;12.13;;
48203;SDS011;33994;50.998;5.864;2023-05-10T03:58:01;21.17;;;11.45;;
48203;SDS011;33994;50.998;5.864;2023-05-10T04:01:04;24.67;;;12.70;;
48203;SDS011;33994;50.998;5.864;2023-05-10T04:04:07;26.02;;;13.73;;
48203;SDS011;33994;50.998;5.864;2023-05-10T04:07:12;24.27;;;13.15;;
48203;SDS011;33994;50.998;5.864;2023-05-10T04:10:15;27.98;;;14.27;;
48203;SDS011;33994;50.998;5.864;2023-05-10T04:13:18;24.05;;;13.07;;
48203;SDS011;33994;50.998;5.864;2023-05-10T04:16:21;28.20;;;13.15;;
48203;SDS011;33994;50.998;5.864;2023-05-10T04:19:24;24.55;;;13.65;;
48203;SDS011;33994;50.998;5.864;2023-05-10T04:22:33;28.63;;;14.32;;
48203;SDS011;33994;50.998;5.864;2023-05-10T04:25:36;27.58;;;14.75;;
48203;SDS011;33994;50.998;5.864;2023-05-10T04:28:39;25.85;;;14.70;;
48203;SDS011;33994;50.998;5.864;2023-05-10T04:31:42;34.30;;;16.75;;
48203;SDS011;33994;50.998;5.864;2023-05-10T04:34:46;34.03;;;15.80;;
48203;SDS011;33994;50.998;5.864;2023-05-10T04:37:50;32.08;;;15.40;;
48203;SDS011;33994;50.998;5.864;2023-05-10T04:40:54;31.42;;;15.73;;
48203;SDS011;33994;50.998;5.864;2023-05-10T04:43:57;29.38;;;15.98;;
48203;SDS011;33994;50.998;5.864;2023-05-10T04:47:00;36.30;;;16.33;;
48203;SDS011;33994;50.998;5.864;2023-05-10T04:50:03;33.28;;;17.50;;
48203;SDS011;33994;50.998;5.864;2023-05-10T04:53:09;35.22;;;17.80;;
48203;SDS011;33994;50.998;5.864;2023-05-10T04:56:12;40.22;;;18.02;;
48203;SDS011;33994;50.998;5.864;2023-05-10T04:59:15;37.80;;;17.13;;
48203;SDS011;33994;50.998;5.864;2023-05-10T05:02:18;34.58;;;16.95;;
48203;SDS011;33994;50.998;5.864;2023-05-10T05:05:21;34.45;;;16.60;;
48203;SDS011;33994;50.998;5.864;2023-05-10T05:08:26;33.85;;;15.55;;
48203;SDS011;33994;50.998;5.864;2023-05-10T05:11:29;35.50;;;15.60;;
48203;SDS011;33994;50.998;5.864;2023-05-10T05:14:32;27.75;;;15.63;;
48203;SDS011;33994;50.998;5.864;2023-05-10T05:17:35;29.38;;;14.43;;
48203;SDS011;33994;50.998;5.864;2023-05-10T05:20:38;30.10;;;14.45;;
48203;SDS011;33994;50.998;5.864;2023-05-10T05:23:43;29.98;;;15.40;;
48203;SDS011;33994;50.998;5.864;2023-05-10T05:26:47;28.63;;;13.73;;
48203;SDS011;33994;50.998;5.864;2023-05-10T05:29:50;31.50;;;14.43;;
48203;SDS011;33994;50.998;5.864;2023-05-10T05:32:53;27.88;;;14.18;;
48203;SDS011;33994;50.998;5.864;2023-05-10T05:35:56;29.20;;;14.63;;
48203;SDS011;33994;50.998;5.864;2023-05-10T05:39:00;33.70;;;15.80;;
48203;SDS011;33994;50.998;5.864;2023-05-10T05:42:03;30.77;;;14.80;;
48203;SDS011;33994;50.998;5.864;2023-05-10T05:45:07;32.80;;;15.50;;
48203;SDS011;33994;50.998;5.864;2023-05-10T05:48:10;29.70;;;14.90;;
48203;SDS011;33994;50.998;5.864;2023-05-10T05:51:14;24.10;;;13.00;;
48203;SDS011;33994;50.998;5.864;2023-05-10T05:54:18;26.27;;;13.43;;
48203;SDS011;33994;50.998;5.864;2023-05-10T05:57:21;29.13;;;13.88;;
48203;SDS011;33994;50.998;5.864;2023-05-10T06:00:24;26.15;;;14.10;;
48203;SDS011;33994;50.998;5.864;2023-05-10T06:03:27;29.17;;;14.18;;
48203;SDS011;33994;50.998;5.864;2023-05-10T06:06:30;25.02;;;12.52;;
48203;SDS011;33994;50.998;5.864;2023-05-10T06:09:35;26.85;;;13.07;;
48203;SDS011;33994;50.998;5.864;2023-05-10T06:12:38;24.73;;;13.07;;
48203;SDS011;33994;50.998;5.864;2023-05-10T06:15:41;21.25;;;11.68;;
48203;SDS011;33994;50.998;5.864;2023-05-10T06:18:44;23.42;;;11.68;;
48203;SDS011;33994;50.998;5.864;2023-05-10T06:21:48;21.55;;;11.68;;
48203;SDS011;33994;50.998;5.864;2023-05-10T06:24:52;19.92;;;11.50;;
48203;SDS011;33994;50.998;5.864;2023-05-10T06:27:55;18.77;;;10.05;;
48203;SDS011;33994;50.998;5.864;2023-05-10T06:30:58;19.98;;;10.48;;
48203;SDS011;33994;50.998;5.864;2023-05-10T06:34:01;17.15;;;9.75;;
48203;SDS011;33994;50.998;5.864;2023-05-10T06:37:05;14.40;;;8.48;;
48203;SDS011;33994;50.998;5.864;2023-05-10T06:40:10;12.38;;;7.30;;
48203;SDS011;33994;50.998;5.864;2023-05-10T06:43:13;12.43;;;7.97;;
48203;SDS011;33994;50.998;5.864;2023-05-10T06:46:16;12.23;;;7.55;;
48203;SDS011;33994;50.998;5.864;2023-05-10T06:49:20;11.30;;;6.80;;
48203;SDS011;33994;50.998;5.864;2023-05-10T06:52:23;16.48;;;8.30;;
48203;SDS011;33994;50.998;5.864;2023-05-10T06:55:27;15.02;;;8.82;;
48203;SDS011;33994;50.998;5.864;2023-05-10T06:58:30;21.45;;;11.38;;
48203;SDS011;33994;50.998;5.864;2023-05-10T07:01:34;29.17;;;14.13;;
48203;SDS011;33994;50.998;5.864;2023-05-10T07:04:37;37.40;;;16.83;;
48203;SDS011;33994;50.998;5.864;2023-05-10T07:07:40;38.63;;;18.20;;
48203;SDS011;33994;50.998;5.864;2023-05-10T07:10:44;39.10;;;19.30;;
48203;SDS011;33994;50.998;5.864;2023-05-10T07:13:47;41.45;;;20.40;;
48203;SDS011;33994;50.998;5.864;2023-05-10T07:16:51;42.22;;;19.30;;
48203;SDS011;33994;50.998;5.864;2023-05-10T07:19:54;37.28;;;18.42;;
48203;SDS011;33994;50.998;5.864;2023-05-10T07:22:57;37.70;;;18.25;;
48203;SDS011;33994;50.998;5.864;2023-05-10T07:26:02;47.55;;;20.35;;
48203;SDS011;33994;50.998;5.864;2023-05-10T07:29:05;40.67;;;18.58;;
48203;SDS011;33994;50.998;5.864;2023-05-10T07:32:08;41.30;;;18.08;;
48203;SDS011;33994;50.998;5.864;2023-05-10T07:35:11;40.90;;;18.05;;
48203;SDS011;33994;50.998;5.864;2023-05-10T07:38:14;43.78;;;20.38;;
48203;SDS011;33994;50.998;5.864;2023-05-10T07:41:20;49.17;;;20.83;;
48203;SDS011;33994;50.998;5.864;2023-05-10T07:44:24;45.17;;;18.42;;
48203;SDS011;33994;50.998;5.864;2023-05-10T07:47:27;44.05;;;19.02;;
48203;SDS011;33994;50.998;5.864;2023-05-10T07:50:30;54.72;;;22.67;;
48203;SDS011;33994;50.998;5.864;2023-05-10T07:53:33;45.33;;;19.70;;
48203;SDS011;33994;50.998;5.864;2023-05-10T07:56:38;41.35;;;20.33;;
48203;SDS011;33994;50.998;5.864;2023-05-10T07:59:41;44.95;;;20.55;;
48203;SDS011;33994;50.998;5.864;2023-05-10T08:02:44;44.38;;;19.73;;
48203;SDS011;33994;50.998;5.864;2023-05-10T08:05:50;46.38;;;19.02;;
48203;SDS011;33994;50.998;5.864;2023-05-10T08:08:53;35.30;;;18.08;;
48203;SDS011;33994;50.998;5.864;2023-05-10T08:11:58;32.78;;;16.95;;
48203;SDS011;33994;50.998;5.864;2023-05-10T08:15:01;41.35;;;17.27;;
48203;SDS011;33994;50.998;5.864;2023-05-10T08:18:04;38.70;;;16.92;;
48203;SDS011;33994;50.998;5.864;2023-05-10T08:21:07;38.83;;;17.75;;
48203;SDS011;33994;50.998;5.864;2023-05-10T08:24:10;37.08;;;17.08;;
48203;SDS011;33994;50.998;5.864;2023-05-10T08:27:15;38.30;;;15.07;;
48203;SDS011;33994;50.998;5.864;2023-05-10T08:30:18;30.23;;;13.77;;
48203;SDS011;33994;50.998;5.864;2023-05-10T08:33:21;30.35;;;12.73;;
48203;SDS011;33994;50.998;5.864;2023-05-10T08:36:24;29.98;;;14.35;;
48203;SDS011;33994;50.998;5.864;2023-05-10T08:39:28;30.50;;;14.48;;
48203;SDS011;33994;50.998;5.864;2023-05-10T08:42:33;33.25;;;15.27;;
48203;SDS011;33994;50.998;5.864;2023-05-10T08:45:39;25.30;;;13.07;;
48203;SDS011;33994;50.998;5.864;2023-05-10T08:48:43;25.30;;;12.77;;
48203;SDS011;33994;50.998;5.864;2023-05-10T08:51:49;31.65;;;16.10;;
48203;SDS011;33994;50.998;5.864;2023-05-10T08:54:54;27.98;;;14.48;;
48203;SDS011;33994;50.998;5.864;2023-05-10T08:57:58;29.95;;;14.93;;
48203;SDS011;33994;50.998;5.864;2023-05-10T09:01:02;31.17;;;16.75;;
48203;SDS011;33994;50.998;5.864;2023-05-10T09:04:06;27.60;;;15.18;;
48203;SDS011;33994;50.998;5.864;2023-05-10T09:07:09;33.47;;;16.88;;
48203;SDS011;33994;50.998;5.864;2023-05-10T09:10:13;31.20;;;15.18;;
48203;SDS011;33994;50.998;5.864;2023-05-10T09:13:19;22.80;;;12.82;;
48203;SDS011;33994;50.998;5.864;2023-05-10T09:16:24;21.85;;;11.40;;
48203;SDS011;33994;50.998;5.864;2023-05-10T09:19:28;22.73;;;11.80;;
48203;SDS011;33994;50.998;5.864;2023-05-10T09:22:31;18.90;;;10.50;;
48203;SDS011;33994;50.998;5.864;2023-05-10T09:25:34;21.08;;;11.27;;
48203;SDS011;33994;50.998;5.864;2023-05-10T09:28:51;21.83;;;10.70;;
48203;SDS011;33994;50.998;5.864;2023-05-10T09:31:55;16.35;;;9.05;;
48203;SDS011;33994;50.998;5.864;2023-05-10T09:34:58;18.80;;;8.85;;
48203;SDS011;33994;50.998;5.864;2023-05-10T09:38:09;17.45;;;9.73;;
48203;SDS011;33994;50.998;5.864;2023-05-10T09:41:15;15.00;;;8.43;;
48203;SDS011;33994;50.998;5.864;2023-05-10T09:44:20;15.00;;;9.23;;
48203;SDS011;33994;50.998;5.864;2023-05-10T09:47:24;15.10;;;8.00;;
48203;SDS011;33994;50.998;5.864;2023-05-10T09:50:28;13.05;;;7.40;;
48203;SDS011;33994;50.998;5.864;2023-05-10T09:53:31;11.88;;;7.00;;
48203;SDS011;33994;50.998;5.864;2023-05-10T09:56:35;10.98;;;6.85;;
48203;SDS011;33994;50.998;5.864;2023-05-10T09:59:42;13.93;;;7.35;;
48203;SDS011;33994;50.998;5.864;2023-05-10T10:02:46;11.52;;;6.55;;
48203;SDS011;33994;50.998;5.864;2023-05-10T10:05:50;11.50;;;6.22;;
48203;SDS011;33994;50.998;5.864;2023-05-10T10:08:53;10.20;;;7.13;;
48203;SDS011;33994;50.998;5.864;2023-05-10T10:11:57;10.35;;;7.15;;
48203;SDS011;33994;50.998;5.864;2023-05-10T10:15:03;10.32;;;7.00;;
48203;SDS011;33994;50.998;5.864;2023-05-10T10:18:07;10.80;;;7.10;;
48203;SDS011;33994;50.998;5.864;2023-05-10T10:21:15;10.50;;;6.82;;
48203;SDS011;33994;50.998;5.864;2023-05-10T10:24:19;10.57;;;6.95;;
48203;SDS011;33994;50.998;5.864;2023-05-10T10:27:23;13.07;;;8.13;;
48203;SDS011;33994;50.998;5.864;2023-05-10T10:30:35;13.18;;;7.60;;
48203;SDS011;33994;50.998;5.864;2023-05-10T10:33:49;12.77;;;8.00;;
48203;SDS011;33994;50.998;5.864;2023-05-10T10:37:03;15.55;;;9.63;;
48203;SDS011;33994;50.998;5.864;2023-05-10T10:43:25;15.82;;;8.68;;
48203;SDS011;33994;50.998;5.864;2023-05-10T10:46:31;15.32;;;8.40;;
48203;SDS011;33994;50.998;5.864;2023-05-10T10:49:37;15.67;;;9.27;;
48203;SDS011;33994;50.998;5.864;2023-05-10T10:52:45;15.98;;;10.35;;
48203;SDS011;33994;50.998;5.864;2023-05-10T10:55:49;15.27;;;9.05;;
48203;SDS011;33994;50.998;5.864;2023-05-10T10:58:52;16.65;;;10.23;;
48203;SDS011;33994;50.998;5.864;2023-05-10T11:01:56;18.98;;;9.73;;
48203;SDS011;33994;50.998;5.864;2023-05-10T11:04:59;19.40;;;9.65;;
48203;SDS011;33994;50.998;5.864;2023-05-10T11:08:12;15.65;;;8.35;;
48203;SDS011;33994;50.998;5.864;2023-05-10T11:11:17;13.68;;;7.53;;
48203;SDS011;33994;50.998;5.864;2023-05-10T11:14:21;15.48;;;8.50;;
48203;SDS011;33994;50.998;5.864;2023-05-10T11:17:26;14.30;;;7.18;;
48203;SDS011;33994;50.998;5.864;2023-05-10T11:20:33;11.20;;;6.60;;
48203;SDS011;33994;50.998;5.864;2023-05-10T11:23:48;11.18;;;7.22;;
48203;SDS011;33994;50.998;5.864;2023-05-10T11:26:53;11.32;;;6.68;;
48203;SDS011;33994;50.998;5.864;2023-05-10T11:29:57;12.10;;;7.68;;
48203;SDS011;33994;50.998;5.864;2023-05-10T11:33:01;13.23;;;7.03;;
48203;SDS011;33994;50.998;5.864;2023-05-10T11:36:05;12.88;;;7.30;;
48203;SDS011;33994;50.998;5.864;2023-05-10T11:39:12;11.82;;;6.50;;
48203;SDS011;33994;50.998;5.864;2023-05-10T11:42:16;9.68;;;5.78;;
48203;SDS011;33994;50.998;5.864;2023-05-10T11:48:13;9.88;;;5.72;;
48203;SDS011;33994;50.998;5.864;2023-05-10T11:51:19;8.30;;;5.18;;
48203;SDS011;33994;50.998;5.864;2023-05-10T11:54:24;9.18;;;5.53;;
48203;SDS011;33994;50.998;5.864;2023-05-10T11:57:27;9.48;;;6.55;;
48203;SDS011;33994;50.998;5.864;2023-05-10T12:00:30;9.43;;;6.63;;
48203;SDS011;33994;50.998;5.864;2023-05-10T12:03:36;10.27;;;6.38;;
48203;SDS011;33994;50.998;5.864;2023-05-10T12:06:40;14.48;;;6.90;;
48203;SDS011;33994;50.998;5.864;2023-05-10T12:09:44;8.82;;;6.05;;
48203;SDS011;33994;50.998;5.864;2023-05-10T12:12:47;7.72;;;5.75;;
48203;SDS011;33994;50.998;5.864;2023-05-10T12:15:50;10.90;;;6.15;;
48203;SDS011;33994;50.998;5.864;2023-05-10T12:18:55;13.60;;;8.25;;
48203;SDS011;33994;50.998;5.864;2023-05-10T12:21:59;15.95;;;7.38;;
48203;SDS011;33994;50.998;5.864;2023-05-10T12:25:02;11.88;;;7.57;;
48203;SDS011;33994;50.998;5.864;2023-05-10T12:28:06;15.70;;;7.93;;
48203;SDS011;33994;50.998;5.864;2023-05-10T12:31:11;14.77;;;8.75;;
48203;SDS011;33994;50.998;5.864;2023-05-10T12:34:23;13.23;;;8.43;;
48203;SDS011;33994;50.998;5.864;2023-05-10T12:37:27;14.82;;;8.48;;
48203;SDS011;33994;50.998;5.864;2023-05-10T12:40:30;15.55;;;7.95;;
48203;SDS011;33994;50.998;5.864;2023-05-10T12:43:34;12.18;;;7.20;;
48203;SDS011;33994;50.998;5.864;2023-05-10T12:46:37;12.27;;;6.82;;
48203;SDS011;33994;50.998;5.864;2023-05-10T12:49:42;10.35;;;6.35;;
48203;SDS011;33994;50.998;5.864;2023-05-10T12:52:45;13.35;;;6.78;;
48203;SDS011;33994;50.998;5.864;2023-05-10T12:55:48;11.20;;;6.53;;
48203;SDS011;33994;50.998;5.864;2023-05-10T12:58:51;11.40;;;6.25;;
48203;SDS011;33994;50.998;5.864;2023-05-10T13:01:54;11.48;;;6.28;;
48203;SDS011;33994;50.998;5.864;2023-05-10T13:04:59;10.55;;;5.10;;
48203;SDS011;33994;50.998;5.864;2023-05-10T13:08:02;5.90;;;3.88;;
48203;SDS011;33994;50.998;5.864;2023-05-10T13:11:05;6.80;;;4.32;;
48203;SDS011;33994;50.998;5.864;2023-05-10T13:14:08;10.27;;;4.68;;
48203;SDS011;33994;50.998;5.864;2023-05-10T13:17:11;8.52;;;4.53;;
48203;SDS011;33994;50.998;5.864;2023-05-10T13:20:16;5.68;;;3.55;;
48203;SDS011;33994;50.998;5.864;2023-05-10T13:23:19;6.32;;;3.60;;
48203;SDS011;33994;50.998;5.864;2023-05-10T13:26:23;5.32;;;3.00;;
48203;SDS011;33994;50.998;5.864;2023-05-10T13:29:26;5.97;;;3.00;;
48203;SDS011;33994;50.998;5.864;2023-05-10T13:32:29;6.63;;;4.38;;
48203;SDS011;33994;50.998;5.864;2023-05-10T13:35:34;7.18;;;4.00;;
48203;SDS011;33994;50.998;5.864;2023-05-10T13:38:37;5.95;;;3.60;;
48203;SDS011;33994;50.998;5.864;2023-05-10T13:41:41;6.07;;;3.78;;
48203;SDS011;33994;50.998;5.864;2023-05-10T13:44:44;8.15;;;4.32;;
48203;SDS011;33994;50.998;5.864;2023-05-10T13:47:47;6.75;;;4.22;;
48203;SDS011;33994;50.998;5.864;2023-05-10T13:50:52;6.10;;;4.30;;
48203;SDS011;33994;50.998;5.864;2023-05-10T13:53:55;5.55;;;3.92;;
48203;SDS011;33994;50.998;5.864;2023-05-10T13:56:58;5.80;;;3.45;;
48203;SDS011;33994;50.998;5.864;2023-05-10T14:00:02;5.85;;;3.70;;
48203;SDS011;33994;50.998;5.864;2023-05-10T14:03:06;4.78;;;3.10;;
48203;SDS011;33994;50.998;5.864;2023-05-10T14:06:11;4.75;;;3.03;;
48203;SDS011;33994;50.998;5.864;2023-05-10T14:09:13;5.78;;;4.00;;
48203;SDS011;33994;50.998;5.864;2023-05-10T14:12:16;4.55;;;3.45;;
48203;SDS011;33994;50.998;5.864;2023-05-10T14:15:20;5.50;;;3.53;;
48203;SDS011;33994;50.998;5.864;2023-05-10T14:18:23;7.75;;;3.45;;
48203;SDS011;33994;50.998;5.864;2023-05-10T14:21:28;5.75;;;3.53;;
48203;SDS011;33994;50.998;5.864;2023-05-10T14:24:31;7.07;;;4.30;;
48203;SDS011;33994;50.998;5.864;2023-05-10T14:27:34;7.13;;;4.20;;
48203;SDS011;33994;50.998;5.864;2023-05-10T14:30:37;5.72;;;3.88;;
48203;SDS011;33994;50.998;5.864;2023-05-10T14:33:41;8.43;;;3.78;;
48203;SDS011;33994;50.998;5.864;2023-05-10T14:36:46;5.80;;;3.42;;
48203;SDS011;33994;50.998;5.864;2023-05-10T14:39:49;3.83;;;2.78;;
48203;SDS011;33994;50.998;5.864;2023-05-10T14:42:52;4.75;;;2.70;;
48203;SDS011;33994;50.998;5.864;2023-05-10T14:45:55;6.05;;;2.58;;
48203;SDS011;33994;50.998;5.864;2023-05-10T14:48:58;6.60;;;2.90;;
48203;SDS011;33994;50.998;5.864;2023-05-10T14:52:03;3.67;;;2.40;;
48203;SDS011;33994;50.998;5.864;2023-05-10T14:55:06;6.63;;;2.97;;
48203;SDS011;33994;50.998;5.864;2023-05-10T14:58:10;4.72;;;3.03;;
48203;SDS011;33994;50.998;5.864;2023-05-10T15:01:13;4.28;;;2.90;;
48203;SDS011;33994;50.998;5.864;2023-05-10T15:04:16;6.03;;;3.70;;
48203;SDS011;33994;50.998;5.864;2023-05-10T15:07:21;5.28;;;3.33;;
48203;SDS011;33994;50.998;5.864;2023-05-10T15:10:24;5.07;;;2.90;;
48203;SDS011;33994;50.998;5.864;2023-05-10T15:13:27;3.42;;;2.40;;
48203;SDS011;33994;50.998;5.864;2023-05-10T15:16:30;5.53;;;2.90;;
48203;SDS011;33994;50.998;5.864;2023-05-10T15:19:33;3.72;;;2.20;;
48203;SDS011;33994;50.998;5.864;2023-05-10T15:22:38;5.40;;;1.98;;
48203;SDS011;33994;50.998;5.864;2023-05-10T15:25:41;3.53;;;1.88;;
48203;SDS011;33994;50.998;5.864;2023-05-10T15:28:44;3.25;;;1.70;;
48203;SDS011;33994;50.998;5.864;2023-05-10T15:31:48;2.72;;;1.50;;
48203;SDS011;33994;50.998;5.864;2023-05-10T15:34:51;2.25;;;1.52;;
48203;SDS011;33994;50.998;5.864;2023-05-10T15:37:56;1.98;;;1.38;;
48203;SDS011;33994;50.998;5.864;2023-05-10T15:40:59;1.17;;;0.95;;
48203;SDS011;33994;50.998;5.864;2023-05-10T15:44:02;2.65;;;1.40;;
48203;SDS011;33994;50.998;5.864;2023-05-10T15:47:05;1.65;;;1.20;;
48203;SDS011;33994;50.998;5.864;2023-05-10T15:50:09;3.63;;;1.38;;
48203;SDS011;33994;50.998;5.864;2023-05-10T15:53:14;2.08;;;0.95;;
48203;SDS011;33994;50.998;5.864;2023-05-10T15:56:17;2.58;;;1.08;;
48203;SDS011;33994;50.998;5.864;2023-05-10T15:59:20;2.90;;;1.00;;
48203;SDS011;33994;50.998;5.864;2023-05-10T16:02:23;1.20;;;0.80;;
48203;SDS011;33994;50.998;5.864;2023-05-10T16:05:26;0.93;;;0.80;;
48203;SDS011;33994;50.998;5.864;2023-05-10T16:08:31;4.13;;;2.08;;
48203;SDS011;33994;50.998;5.864;2023-05-10T16:11:34;0.88;;;0.40;;
48203;SDS011;33994;50.998;5.864;2023-05-10T16:14:37;1.00;;;0.70;;
48203;SDS011;33994;50.998;5.864;2023-05-10T16:17:40;2.78;;;1.17;;
48203;SDS011;33994;50.998;5.864;2023-05-10T16:20:43;0.75;;;0.60;;
48203;SDS011;33994;50.998;5.864;2023-05-10T16:23:48;1.20;;;0.70;;
48203;SDS011;33994;50.998;5.864;2023-05-10T16:26:51;1.42;;;0.70;;
48203;SDS011;33994;50.998;5.864;2023-05-10T16:29:54;0.77;;;0.63;;
48203;SDS011;33994;50.998;5.864;2023-05-10T16:32:58;2.13;;;0.90;;
48203;SDS011;33994;50.998;5.864;2023-05-10T16:36:02;1.10;;;0.90;;
48203;SDS011;33994;50.998;5.864;2023-05-10T16:39:07;1.83;;;0.90;;
48203;SDS011;33994;50.998;5.864;2023-05-10T16:42:10;1.13;;;0.80;;
48203;SDS011;33994;50.998;5.864;2023-05-10T16:45:13;1.60;;;0.90;;
48203;SDS011;33994;50.998;5.864;2023-05-10T16:48:16;1.73;;;1.38;;
48203;SDS011;33994;50.998;5.864;2023-05-10T16:51:19;2.53;;;1.25;;
48203;SDS011;33994;50.998;5.864;2023-05-10T16:54:24;1.48;;;1.00;;
48203;SDS011;33994;50.998;5.864;2023-05-10T16:57:27;1.70;;;1.25;;
48203;SDS011;33994;50.998;5.864;2023-05-10T17:00:30;2.83;;;1.35;;
48203;SDS011;33994;50.998;5.864;2023-05-10T17:03:33;2.20;;;1.27;;
48203;SDS011;33994;50.998;5.864;2023-05-10T17:06:37;2.25;;;1.42;;
48203;SDS011;33994;50.998;5.864;2023-05-10T17:09:41;4.80;;;1.50;;
48203;SDS011;33994;50.998;5.864;2023-05-10T17:12:45;1.92;;;1.25;;
48203;SDS011;33994;50.998;5.864;2023-05-10T17:15:48;2.20;;;1.40;;
48203;SDS011;33994;50.998;5.864;2023-05-10T17:18:51;2.10;;;1.40;;
48203;SDS011;33994;50.998;5.864;2023-05-10T17:21:54;2.30;;;1.25;;
48203;SDS011;33994;50.998;5.864;2023-05-10T17:24:59;2.65;;;1.27;;
48203;SDS011;33994;50.998;5.864;2023-05-10T17:28:02;2.30;;;1.60;;
48203;SDS011;33994;50.998;5.864;2023-05-10T17:31:05;3.35;;;1.80;;
48203;SDS011;33994;50.998;5.864;2023-05-10T17:34:08;2.63;;;1.50;;
48203;SDS011;33994;50.998;5.864;2023-05-10T17:37:11;3.38;;;1.60;;
48203;SDS011;33994;50.998;5.864;2023-05-10T17:40:16;4.13;;;1.60;;
48203;SDS011;33994;50.998;5.864;2023-05-10T17:43:19;5.32;;;2.58;;
48203;SDS011;33994;50.998;5.864;2023-05-10T17:46:22;3.08;;;1.80;;
48203;SDS011;33994;50.998;5.864;2023-05-10T17:49:25;6.78;;;1.98;;
48203;SDS011;33994;50.998;5.864;2023-05-10T17:52:28;2.70;;;1.60;;
48203;SDS011;33994;50.998;5.864;2023-05-10T17:55:33;3.80;;;1.63;;
48203;SDS011;33994;50.998;5.864;2023-05-10T17:58:36;5.07;;;1.85;;
48203;SDS011;33994;50.998;5.864;2023-05-10T18:01:39;4.55;;;1.92;;
48203;SDS011;33994;50.998;5.864;2023-05-10T18:04:42;6.07;;;1.83;;
48203;SDS011;33994;50.998;5.864;2023-05-10T18:07:46;6.47;;;1.67;;
48203;SDS011;33994;50.998;5.864;2023-05-10T18:10:50;2.33;;;1.65;;
48203;SDS011;33994;50.998;5.864;2023-05-10T18:13:53;4.15;;;1.88;;
48203;SDS011;33994;50.998;5.864;2023-05-10T18:16:57;5.00;;;1.60;;
48203;SDS011;33994;50.998;5.864;2023-05-10T18:20:00;6.30;;;1.95;;